Benaguasil, Spain
Current Conditions -  °F | °C
As of 10:00 PM on Saturday 22 Nov 2014 (Local Time) from LEBT Reporting Station
Broken Clouds Broken Clouds  
Wind Chill: 59°   Ceiling: 1100
Heat Index: 59°   Visibility: 2.5mi
Dew Point: 57°   Wind: 1mph
Humidity: 94%   Direction: 330°NNW
Pressure: 30.03"   Gusts: NA
Location:  39.6°N, 0.58°W
Report Text: LEBT 222100Z AUTO 33001KT 4000 // BKN011/// 15/14 Q1017
Loading
Personal Weather Stations






























Interactive Weather Map New forecast layout! Learn more

10-Day Weather Forecast

Advertisements
Track Severe Weather on mobile